createdAt,value
2022-09-29T00:02:04.313Z,5.33
2022-09-29T00:04:26.124Z,7.03
2022-09-29T00:06:47.953Z,6.90
2022-09-29T00:09:09.729Z,6.97
2022-09-29T00:11:31.511Z,7.77
2022-09-29T00:13:55.026Z,6.10
2022-09-29T00:16:17.288Z,6.78
2022-09-29T00:18:40.025Z,6.43
2022-09-29T00:21:07.732Z,6.50
2022-09-29T00:23:32.296Z,6.67
2022-09-29T00:26:11.995Z,6.40
2022-09-29T00:28:36.334Z,6.23
2022-09-29T00:31:01.260Z,6.38
2022-09-29T00:33:23.224Z,6.70
2022-09-29T00:35:44.976Z,6.43
2022-09-29T00:38:06.732Z,7.43
2022-09-29T00:40:28.503Z,7.03
2022-09-29T00:42:50.271Z,7.70
2022-09-29T00:45:21.269Z,8.37
2022-09-29T00:47:46.724Z,7.60
2022-09-29T00:50:44.471Z,9.00
2022-09-29T00:53:12.109Z,8.37
2022-09-29T00:55:44.204Z,8.27
2022-09-29T00:58:23.755Z,8.00
2022-09-29T01:00:45.902Z,8.10
2022-09-29T01:03:17.697Z,7.43
2022-09-29T01:05:49.581Z,7.37
2022-09-29T01:08:23.181Z,7.50
2022-09-29T01:10:46.200Z,7.07
2022-09-29T01:13:08.246Z,6.60
2022-09-29T01:15:30.403Z,6.33
2022-09-29T01:17:52.231Z,5.73
2022-09-29T01:20:20.709Z,5.47
2022-09-29T01:23:21.000Z,4.70
2022-09-29T01:26:33.551Z,5.63
2022-09-29T01:29:39.880Z,5.77
2022-09-29T01:32:38.462Z,6.57
2022-09-29T01:35:26.636Z,4.70
2022-09-29T01:38:12.833Z,4.63
2022-09-29T01:41:10.577Z,4.93
2022-09-29T01:43:40.134Z,5.30
2022-09-29T01:46:15.682Z,5.07
2022-09-29T01:48:46.872Z,5.17
2022-09-29T01:51:24.939Z,5.37
2022-09-29T01:53:53.018Z,4.63
2022-09-29T01:56:25.794Z,4.90
2022-09-29T01:58:56.898Z,5.63
2022-09-29T02:01:26.019Z,4.97
2022-09-29T02:03:58.045Z,4.90
2022-09-29T02:06:33.202Z,4.90
2022-09-29T02:09:03.549Z,5.83
2022-09-29T02:11:27.873Z,5.50
2022-09-29T02:14:16.126Z,5.10
2022-09-29T02:16:49.313Z,4.77
2022-09-29T02:19:19.123Z,4.83
2022-09-29T02:21:41.065Z,4.80
2022-09-29T02:24:03.201Z,5.00
2022-09-29T02:26:36.061Z,5.07
2022-09-29T02:28:58.250Z,4.77
2022-09-29T02:31:20.298Z,5.50
2022-09-29T02:33:42.165Z,5.33
2022-09-29T02:36:21.857Z,5.23
2022-09-29T02:39:05.248Z,6.27
2022-09-29T02:41:43.807Z,7.23
2022-09-29T02:44:24.815Z,5.73
2022-09-29T02:47:45.915Z,5.33
2022-09-29T02:50:39.641Z,5.60
2022-09-29T02:53:19.477Z,4.60
2022-09-29T02:55:52.840Z,4.83
2022-09-29T02:58:38.507Z,5.60
2022-09-29T03:01:01.065Z,5.87
2022-09-29T03:03:22.949Z,5.83
2022-09-29T03:05:44.803Z,5.67
2022-09-29T03:08:06.578Z,5.37
2022-09-29T03:10:30.317Z,5.57
2022-09-29T03:12:52.331Z,5.57
2022-09-29T03:15:14.515Z,5.60
2022-09-29T03:17:36.273Z,6.00
2022-09-29T03:19:58.091Z,6.20
2022-09-29T03:22:19.883Z,7.00
2022-09-29T03:24:42.086Z,6.60
2022-09-29T03:27:04.529Z,9.13
2022-09-29T03:29:26.357Z,7.47
2022-09-29T03:31:48.246Z,7.20
2022-09-29T03:34:10.285Z,6.03
2022-09-29T03:36:32.147Z,6.70
2022-09-29T03:38:53.954Z,6.40
2022-09-29T03:41:16.695Z,6.10
2022-09-29T03:43:38.503Z,6.20
2022-09-29T03:46:00.439Z,6.90
2022-09-29T03:48:24.835Z,6.40
2022-09-29T03:53:09.624Z,5.83
2022-09-29T03:55:31.522Z,6.17
2022-09-29T03:57:53.288Z,8.97
2022-09-29T04:00:15.673Z,6.60
2022-09-29T04:02:37.514Z,6.00
2022-09-29T04:04:59.288Z,6.03
2022-09-29T04:07:21.141Z,5.73
2022-09-29T04:09:43.193Z,5.17
2022-09-29T04:12:05.395Z,5.40
2022-09-29T04:14:27.214Z,5.97
2022-09-29T04:16:49.104Z,6.13
2022-09-29T04:19:10.846Z,5.80
2022-09-29T04:21:32.705Z,5.33
2022-09-29T04:23:54.573Z,5.77
2022-09-29T04:26:16.839Z,5.23
2022-09-29T04:28:39.145Z,5.10
2022-09-29T04:31:01.535Z,5.43
2022-09-29T04:33:23.326Z,6.10
2022-09-29T04:35:46.212Z,5.20
2022-09-29T04:38:08.628Z,5.67
2022-09-29T04:40:30.512Z,5.63
2022-09-29T04:42:52.596Z,5.87
2022-09-29T04:45:14.597Z,6.07
2022-09-29T04:47:36.352Z,8.20
2022-09-29T04:49:58.240Z,8.87
2022-09-29T04:52:20.229Z,7.07
2022-09-29T04:54:41.982Z,8.20
2022-09-29T04:57:04.010Z,7.60
2022-09-29T04:59:25.942Z,7.40
2022-09-29T05:01:49.671Z,8.13
2022-09-29T05:04:13.591Z,7.65
2022-09-29T05:06:39.561Z,7.82
2022-09-29T05:09:01.311Z,7.67
2022-09-29T05:11:23.522Z,7.57
2022-09-29T05:13:51.004Z,7.97
2022-09-29T05:16:12.855Z,6.67
2022-09-29T05:18:35.137Z,7.17
2022-09-29T05:21:23.323Z,9.50
2022-09-29T05:23:44.212Z,7.63
2022-09-29T05:26:09.021Z,8.40
2022-09-29T05:28:30.963Z,8.87
2022-09-29T05:30:52.792Z,8.10
2022-09-29T05:33:14.552Z,8.60
2022-09-29T05:35:36.488Z,7.70
2022-09-29T05:37:58.357Z,7.97
2022-09-29T05:40:24.159Z,6.50
2022-09-29T05:42:46.284Z,6.97
2022-09-29T05:45:10.905Z,7.33
2022-09-29T05:47:32.730Z,8.50
2022-09-29T05:49:54.481Z,9.03
2022-09-29T05:52:16.432Z,8.70
2022-09-29T05:54:38.199Z,8.83
2022-09-29T05:56:59.963Z,8.23
2022-09-29T05:59:21.991Z,9.37
2022-09-29T06:01:43.996Z,9.83
2022-09-29T06:04:05.902Z,11.43
2022-09-29T06:06:29.947Z,9.63
2022-09-29T06:08:53.071Z,11.50
2022-09-29T06:11:27.777Z,10.90
2022-09-29T06:13:52.525Z,11.18
2022-09-29T06:16:17.626Z,11.67
2022-09-29T06:18:40.742Z,12.53
2022-09-29T06:21:13.338Z,12.07
2022-09-29T06:23:35.879Z,12.20
2022-09-29T06:26:06.047Z,12.40
2022-09-29T06:28:29.261Z,11.97
2022-09-29T06:30:51.712Z,12.87
2022-09-29T06:33:13.512Z,12.60
2022-09-29T06:35:53.871Z,12.63
2022-09-29T06:38:17.011Z,12.13
2022-09-29T06:40:38.806Z,12.30
2022-09-29T06:43:00.965Z,11.67
2022-09-29T06:45:22.748Z,11.10
2022-09-29T06:47:44.531Z,11.47
2022-09-29T06:50:13.143Z,10.87
2022-09-29T06:52:39.538Z,11.83
2022-09-29T06:55:01.333Z,11.70
2022-09-29T06:57:23.139Z,12.47
2022-09-29T06:59:45.241Z,12.50
2022-09-29T07:02:07.130Z,14.60
2022-09-29T07:04:29.282Z,14.90
2022-09-29T07:06:52.054Z,15.60
2022-09-29T07:09:16.351Z,16.07
2022-09-29T07:11:40.300Z,15.77
2022-09-29T07:14:02.255Z,16.67
2022-09-29T07:16:24.892Z,16.67
2022-09-29T07:18:47.137Z,16.47
2022-09-29T07:21:18.769Z,17.60
2022-09-29T07:23:42.343Z,17.37
2022-09-29T07:26:07.954Z,17.80
2022-09-29T07:28:30.275Z,18.03
2022-09-29T07:31:20.151Z,17.70
2022-09-29T07:33:46.168Z,16.73
2022-09-29T07:36:08.440Z,18.50
2022-09-29T07:38:31.174Z,17.97
2022-09-29T07:40:53.199Z,20.50
2022-09-29T07:43:15.065Z,19.93
2022-09-29T07:45:36.834Z,20.17
2022-09-29T07:47:58.641Z,20.67
2022-09-29T07:50:20.428Z,20.37
2022-09-29T07:52:42.166Z,20.80
2022-09-29T07:55:05.586Z,21.43
2022-09-29T07:57:27.418Z,20.23
2022-09-29T07:59:53.213Z,20.77
2022-09-29T08:02:15.377Z,20.40
2022-09-29T08:04:37.204Z,20.33
2022-09-29T08:06:59.691Z,21.60
2022-09-29T08:09:25.343Z,21.90
2022-09-29T08:11:54.106Z,21.50
2022-09-29T08:14:22.479Z,21.27
2022-09-29T08:16:44.300Z,20.50
2022-09-29T08:19:07.180Z,20.77
2022-09-29T08:21:31.928Z,20.10
2022-09-29T08:23:53.722Z,19.77
2022-09-29T08:26:22.826Z,19.63
2022-09-29T08:29:00.957Z,20.40
2022-09-29T08:31:26.246Z,21.13
2022-09-29T08:33:50.602Z,18.30
2022-09-29T08:36:15.111Z,18.38
2022-09-29T08:41:06.199Z,18.00
2022-09-29T08:44:37.814Z,19.30
2022-09-29T08:47:46.117Z,19.43
2022-09-29T08:50:21.916Z,17.97
2022-09-29T08:52:53.160Z,19.20
2022-09-29T08:55:21.560Z,19.20
2022-09-29T08:57:51.352Z,18.33
2022-09-29T09:00:18.132Z,19.10
2022-09-29T09:03:41.250Z,19.30
2022-09-29T09:06:15.437Z,18.03
2022-09-29T09:09:01.570Z,18.13
2022-09-29T09:11:41.006Z,18.10
2022-09-29T09:14:13.741Z,19.10
2022-09-29T09:16:47.871Z,16.90
2022-09-29T09:19:34.420Z,17.52
2022-09-29T09:22:22.863Z,17.87
2022-09-29T09:25:05.114Z,17.23
2022-09-29T09:28:02.636Z,17.17
2022-09-29T09:30:31.256Z,18.70
2022-09-29T09:33:01.852Z,17.63
2022-09-29T09:35:55.111Z,15.57
2022-09-29T09:38:34.072Z,16.40
2022-09-29T09:41:00.343Z,14.73
2022-09-29T09:43:34.037Z,15.50
2022-09-29T09:46:17.676Z,18.40
2022-09-29T09:48:51.152Z,14.53
2022-09-29T09:51:54.926Z,13.07
2022-09-29T09:54:37.034Z,14.20
2022-09-29T09:57:11.019Z,9.77
2022-09-29T09:59:52.790Z,10.87
2022-09-29T10:02:21.084Z,13.07
2022-09-29T10:04:44.101Z,10.80
2022-09-29T10:07:05.947Z,10.73
2022-09-29T10:09:28.743Z,12.23
2022-09-29T10:11:51.229Z,15.67
2022-09-29T10:14:22.865Z,12.63
2022-09-29T10:17:01.950Z,12.97
2022-09-29T10:19:53.130Z,14.30
2022-09-29T10:22:15.512Z,12.00
2022-09-29T10:24:37.347Z,12.17
2022-09-29T10:27:02.708Z,14.80
2022-09-29T10:29:40.793Z,13.93
2022-09-29T10:32:37.505Z,13.03
2022-09-29T10:35:22.511Z,12.73
2022-09-29T10:37:52.941Z,12.45
2022-09-29T10:40:23.883Z,13.03
2022-09-29T10:42:49.371Z,12.70
2022-09-29T10:45:15.410Z,12.93
2022-09-29T10:47:38.261Z,12.60
2022-09-29T10:50:09.660Z,11.70
2022-09-29T10:52:31.656Z,10.40
2022-09-29T10:55:00.712Z,11.67
2022-09-29T10:57:27.954Z,12.47
2022-09-29T10:59:53.205Z,12.20
2022-09-29T11:02:35.092Z,11.60
2022-09-29T11:05:03.831Z,11.13
2022-09-29T11:07:26.059Z,11.57
2022-09-29T11:09:48.208Z,10.93
2022-09-29T11:12:35.105Z,10.17
2022-09-29T11:14:57.165Z,11.73
2022-09-29T11:17:39.650Z,10.50
2022-09-29T11:20:06.794Z,10.20
2022-09-29T11:22:34.651Z,9.13
2022-09-29T11:25:44.381Z,8.90
2022-09-29T11:28:29.371Z,8.80
2022-09-29T11:31:15.348Z,8.60
2022-09-29T11:33:49.462Z,8.93
2022-09-29T11:37:07.239Z,9.10
2022-09-29T11:40:03.477Z,8.10
2022-09-29T11:43:01.766Z,8.73
2022-09-29T11:45:59.564Z,7.57
2022-09-29T11:48:47.496Z,8.07
2022-09-29T11:51:28.790Z,6.80
2022-09-29T11:54:37.158Z,8.40
2022-09-29T11:57:10.726Z,8.53
2022-09-29T12:00:00.751Z,8.10
2022-09-29T12:02:41.542Z,8.90
2022-09-29T12:05:18.104Z,8.40
2022-09-29T12:08:06.149Z,8.80
2022-09-29T12:10:48.408Z,8.30
2022-09-29T12:13:50.569Z,8.23
2022-09-29T12:16:21.139Z,8.27
2022-09-29T12:18:58.451Z,7.63
2022-09-29T12:21:37.870Z,8.63
2022-09-29T12:24:06.274Z,7.60
2022-09-29T12:26:29.262Z,7.37
2022-09-29T12:29:28.900Z,7.10
2022-09-29T12:31:56.155Z,7.63
2022-09-29T12:34:33.962Z,7.30
2022-09-29T12:37:10.606Z,7.07
2022-09-29T12:40:06.367Z,6.03
2022-09-29T12:45:46.996Z,5.60
2022-09-29T12:48:45.806Z,4.65
2022-09-29T12:51:35.330Z,5.10
2022-09-29T12:54:11.144Z,4.80
2022-09-29T12:56:41.987Z,5.43
2022-09-29T12:59:14.302Z,4.70
2022-09-29T13:01:38.574Z,5.20
2022-09-29T13:04:58.874Z,4.95
2022-09-29T13:08:02.819Z,4.83
2022-09-29T13:11:17.020Z,5.67
2022-09-29T13:13:44.988Z,5.80
2022-09-29T13:16:31.373Z,5.47
2022-09-29T13:19:55.743Z,5.07
2022-09-29T13:22:53.257Z,3.93
2022-09-29T13:25:40.942Z,4.73
2022-09-29T13:28:41.191Z,3.83
2022-09-29T13:31:09.302Z,3.90
2022-09-29T13:33:31.624Z,3.93
2022-09-29T13:35:54.445Z,3.17
2022-09-29T13:38:39.418Z,3.10
2022-09-29T13:41:37.336Z,3.42
2022-09-29T13:43:59.069Z,4.10
2022-09-29T13:46:32.810Z,4.70
2022-09-29T13:49:08.665Z,4.80
2022-09-29T13:51:55.079Z,4.60
2022-09-29T13:54:52.538Z,4.90
2022-09-29T13:57:23.748Z,5.20
2022-09-29T14:00:15.171Z,4.90
2022-09-29T14:02:44.253Z,4.83
2022-09-29T14:05:27.011Z,5.07
2022-09-29T14:08:16.422Z,4.97
2022-09-29T14:10:47.314Z,4.63
2022-09-29T14:13:27.959Z,4.67
2022-09-29T14:16:07.127Z,5.20
2022-09-29T14:18:43.949Z,5.00
2022-09-29T14:21:14.820Z,5.30
2022-09-29T14:23:45.872Z,4.60
2022-09-29T14:26:49.775Z,4.83
2022-09-29T14:29:36.980Z,5.17
2022-09-29T14:32:02.506Z,5.37
2022-09-29T14:34:31.619Z,5.63
2022-09-29T14:36:57.692Z,5.33
2022-09-29T14:39:26.513Z,5.20
2022-09-29T14:41:49.783Z,4.70
2022-09-29T14:44:23.430Z,4.90
2022-09-29T14:47:17.010Z,5.20
2022-09-29T14:50:45.860Z,5.10
2022-09-29T14:53:45.196Z,5.27
2022-09-29T14:56:44.183Z,5.00
2022-09-29T14:59:35.484Z,5.13
2022-09-29T15:02:16.615Z,4.90
2022-09-29T15:04:42.064Z,4.17
2022-09-29T15:07:04.907Z,4.20
2022-09-29T15:09:26.828Z,3.80
2022-09-29T15:12:04.398Z,3.80
2022-09-29T15:14:36.948Z,3.20
2022-09-29T15:17:38.978Z,3.00
2022-09-29T15:21:04.688Z,3.03
2022-09-29T15:24:14.552Z,3.50
2022-09-29T15:26:38.323Z,3.57
2022-09-29T15:29:00.879Z,3.28
2022-09-29T15:31:34.286Z,3.30
2022-09-29T15:33:56.570Z,3.20
2022-09-29T15:36:26.797Z,3.50
2022-09-29T15:39:42.379Z,3.70
2022-09-29T15:42:23.612Z,3.90
2022-09-29T15:45:02.917Z,3.57
2022-09-29T15:47:37.705Z,3.87
2022-09-29T15:50:17.466Z,4.00
2022-09-29T15:52:39.488Z,4.07
2022-09-29T15:55:01.466Z,4.53
2022-09-29T15:57:43.435Z,4.97
2022-09-29T16:00:06.414Z,4.47
2022-09-29T16:02:42.784Z,4.73
2022-09-29T16:05:15.681Z,4.53
2022-09-29T16:07:48.841Z,4.57
2022-09-29T16:10:19.027Z,4.70
2022-09-29T16:12:58.828Z,5.20
2022-09-29T16:15:27.075Z,5.23
2022-09-29T16:17:51.007Z,6.27
2022-09-29T16:20:23.749Z,5.72
2022-09-29T16:22:49.914Z,5.63
2022-09-29T16:25:28.719Z,5.93
2022-09-29T16:27:58.685Z,5.60
2022-09-29T16:30:25.215Z,5.60
2022-09-29T16:32:57.153Z,6.10
2022-09-29T16:35:48.920Z,6.03
2022-09-29T16:38:25.283Z,6.73
2022-09-29T16:40:47.870Z,6.10
2022-09-29T16:43:31.129Z,6.13
2022-09-29T16:45:57.109Z,6.07
2022-09-29T16:48:20.617Z,5.83
2022-09-29T16:50:54.237Z,6.33
2022-09-29T16:53:33.169Z,6.10
2022-09-29T16:56:09.580Z,6.20
2022-09-29T16:58:31.842Z,5.90
2022-09-29T17:00:54.217Z,5.57
2022-09-29T17:03:16.119Z,5.80
2022-09-29T17:05:43.752Z,6.03
2022-09-29T17:08:15.841Z,6.23
2022-09-29T17:10:37.840Z,5.50
2022-09-29T17:13:00.103Z,5.97
2022-09-29T17:15:23.569Z,6.10
2022-09-29T17:17:48.966Z,6.50
2022-09-29T17:20:18.622Z,6.60
2022-09-29T17:22:40.624Z,6.47
2022-09-29T17:25:04.214Z,7.03
2022-09-29T17:27:46.384Z,6.70
2022-09-29T17:30:10.610Z,7.00
2022-09-29T17:32:32.469Z,6.57
2022-09-29T17:34:54.256Z,6.87
2022-09-29T17:37:19.407Z,7.07
2022-09-29T17:39:41.164Z,7.37
2022-09-29T17:42:03.004Z,7.47
2022-09-29T17:44:27.053Z,8.30
2022-09-29T17:46:50.611Z,9.00
2022-09-29T17:49:17.928Z,7.60
2022-09-29T17:51:39.872Z,8.60
2022-09-29T17:54:01.643Z,8.90
2022-09-29T17:56:26.151Z,8.40
2022-09-29T18:01:16.099Z,9.37
2022-09-29T18:03:40.143Z,9.38
2022-09-29T18:06:02.334Z,9.15
2022-09-29T18:08:27.468Z,8.73
2022-09-29T18:10:56.867Z,9.40
2022-09-29T18:13:20.305Z,9.10
2022-09-29T18:15:43.801Z,9.40
2022-09-29T18:18:08.073Z,9.77
2022-09-29T18:20:33.812Z,10.25
2022-09-29T18:23:00.197Z,11.60
2022-09-29T18:25:22.059Z,10.47
2022-09-29T18:27:46.371Z,11.23
2022-09-29T18:30:21.104Z,10.80
2022-09-29T18:32:42.847Z,10.45
2022-09-29T18:35:14.444Z,9.20
2022-09-29T18:37:36.320Z,10.13
2022-09-29T18:39:58.100Z,11.33
2022-09-29T18:42:19.884Z,10.80
2022-09-29T18:44:41.697Z,11.60
2022-09-29T18:47:03.505Z,12.90
2022-09-29T18:49:25.308Z,11.87
2022-09-29T18:51:47.124Z,11.93
2022-09-29T18:54:08.957Z,12.67
2022-09-29T18:56:31.057Z,12.50
2022-09-29T18:58:52.823Z,13.03
2022-09-29T19:01:23.176Z,13.10
2022-09-29T19:03:45.068Z,13.67
2022-09-29T19:06:08.663Z,14.20
2022-09-29T19:08:33.369Z,14.20
2022-09-29T19:10:58.446Z,13.93
2022-09-29T19:13:21.791Z,14.17
2022-09-29T19:15:46.264Z,13.37
2022-09-29T19:20:32.056Z,15.27
2022-09-29T19:22:55.966Z,16.03
2022-09-29T19:25:22.524Z,21.00
2022-09-29T19:27:45.778Z,23.73
2022-09-29T19:30:09.327Z,21.87
2022-09-29T19:32:31.480Z,21.47
2022-09-29T19:34:54.935Z,18.27
2022-09-29T19:37:17.478Z,18.80
2022-09-29T19:39:42.411Z,17.13
2022-09-29T19:42:08.153Z,18.83
2022-09-29T19:44:32.109Z,17.47
2022-09-29T19:46:53.906Z,17.65
2022-09-29T19:49:16.441Z,16.70
2022-09-29T19:51:50.127Z,17.50
2022-09-29T19:54:14.376Z,16.13
2022-09-29T19:56:49.337Z,16.05
2022-09-29T19:59:14.891Z,16.70
2022-09-29T20:01:37.211Z,16.67
2022-09-29T20:03:59.137Z,17.33
2022-09-29T20:06:21.969Z,16.17
2022-09-29T20:08:43.712Z,15.87
2022-09-29T20:11:09.002Z,15.37
2022-09-29T20:13:30.830Z,16.83
2022-09-29T20:15:53.289Z,15.77
2022-09-29T20:18:15.234Z,15.37
2022-09-29T20:20:38.414Z,16.73
2022-09-29T20:23:02.096Z,19.03
2022-09-29T20:25:23.858Z,18.05
2022-09-29T20:27:45.895Z,18.23
2022-09-29T20:30:08.938Z,16.77
2022-09-29T20:32:31.960Z,19.83
2022-09-29T20:34:53.720Z,18.53
2022-09-29T20:37:15.643Z,19.37
2022-09-29T20:39:37.545Z,19.30
2022-09-29T20:41:59.516Z,19.17
2022-09-29T20:44:26.301Z,19.47
2022-09-29T20:46:48.134Z,22.37
2022-09-29T20:49:10.184Z,21.73
2022-09-29T20:51:37.679Z,19.37
2022-09-29T20:54:01.559Z,21.50
2022-09-29T20:56:31.214Z,19.77
2022-09-29T20:58:53.003Z,19.40
2022-09-29T21:01:22.778Z,19.63
2022-09-29T21:03:54.644Z,22.33
2022-09-29T21:06:17.709Z,21.63
2022-09-29T21:08:41.564Z,23.77
2022-09-29T21:11:05.569Z,21.92
2022-09-29T21:13:29.594Z,21.73
2022-09-29T21:15:51.357Z,22.40
2022-09-29T21:18:13.171Z,19.93
2022-09-29T21:20:35.115Z,20.03
2022-09-29T21:22:56.855Z,18.90
2022-09-29T21:25:18.619Z,17.63
2022-09-29T21:27:41.620Z,17.80
2022-09-29T21:30:04.124Z,17.13
2022-09-29T21:32:25.900Z,16.03
2022-09-29T21:34:47.722Z,16.33
2022-09-29T21:37:10.290Z,16.60
2022-09-29T21:39:32.243Z,17.87
2022-09-29T21:41:54.023Z,16.27
2022-09-29T21:44:20.756Z,17.93
2022-09-29T21:46:43.832Z,16.53
2022-09-29T21:49:08.981Z,17.00
2022-09-29T21:51:40.232Z,17.97
2022-09-29T21:54:02.849Z,18.00
2022-09-29T21:56:29.372Z,18.10
2022-09-29T21:58:54.167Z,18.57
2022-09-29T22:01:17.017Z,17.07
2022-09-29T22:03:42.769Z,18.43
2022-09-29T22:06:10.284Z,18.53
2022-09-29T22:08:32.613Z,18.40
2022-09-29T22:10:55.229Z,18.33
2022-09-29T22:13:18.483Z,19.30
2022-09-29T22:15:40.627Z,18.43
2022-09-29T22:18:02.516Z,18.53
2022-09-29T22:20:24.452Z,17.30
2022-09-29T22:22:46.203Z,16.50
2022-09-29T22:25:08.379Z,17.30
2022-09-29T22:27:30.140Z,17.77
2022-09-29T22:29:52.365Z,17.33
2022-09-29T22:32:14.114Z,17.10
2022-09-29T22:34:35.960Z,17.17
2022-09-29T22:36:57.877Z,17.53
2022-09-29T22:39:19.853Z,18.30
2022-09-29T22:41:42.335Z,16.97
2022-09-29T22:44:04.330Z,16.37
2022-09-29T22:46:29.970Z,16.97
2022-09-29T22:48:52.474Z,16.20
2022-09-29T22:51:14.978Z,16.27
2022-09-29T22:53:37.903Z,15.23
2022-09-29T22:56:07.479Z,15.30
2022-09-29T22:58:29.271Z,16.00
2022-09-29T23:01:03.695Z,15.90
2022-09-29T23:03:25.446Z,15.93
2022-09-29T23:05:47.252Z,14.80
2022-09-29T23:08:09.069Z,15.07
2022-09-29T23:10:30.832Z,15.60
2022-09-29T23:12:52.993Z,15.53
2022-09-29T23:15:15.230Z,14.40
2022-09-29T23:17:37.550Z,15.30
2022-09-29T23:20:00.347Z,14.17
2022-09-29T23:22:23.347Z,16.20
2022-09-29T23:24:45.107Z,14.80
2022-09-29T23:27:06.875Z,14.67
2022-09-29T23:29:28.633Z,15.23
2022-09-29T23:31:50.749Z,16.40
2022-09-29T23:34:13.207Z,14.20
2022-09-29T23:36:34.959Z,15.07
2022-09-29T23:39:14.080Z,13.80
2022-09-29T23:41:39.600Z,14.83
2022-09-29T23:44:05.377Z,15.47
2022-09-29T23:46:32.294Z,13.70
2022-09-29T23:48:54.148Z,13.13
2022-09-29T23:51:16.049Z,15.93
2022-09-29T23:53:37.824Z,14.40
2022-09-29T23:55:59.599Z,15.20
2022-09-29T23:58:21.361Z,15.00
